sensor_id;sensor_type;location;lat;lon;timestamp;P1;durP1;ratioP1;P2;durP2;ratioP2
23338;SDS011;11841;49.368;20.962;2023-12-14T00:00:40;45.75;;;18.80;;
23338;SDS011;11841;49.368;20.962;2023-12-14T00:03:25;43.17;;;16.75;;
23338;SDS011;11841;49.368;20.962;2023-12-14T00:06:11;44.20;;;18.42;;
23338;SDS011;11841;49.368;20.962;2023-12-14T00:08:57;37.30;;;16.70;;
23338;SDS011;11841;49.368;20.962;2023-12-14T00:11:42;38.53;;;16.63;;
23338;SDS011;11841;49.368;20.962;2023-12-14T00:14:28;40.35;;;17.13;;
23338;SDS011;11841;49.368;20.962;2023-12-14T00:17:13;35.10;;;17.85;;
23338;SDS011;11841;49.368;20.962;2023-12-14T00:19:58;38.65;;;16.60;;
23338;SDS011;11841;49.368;20.962;2023-12-14T00:22:44;34.10;;;17.45;;
23338;SDS011;11841;49.368;20.962;2023-12-14T00:25:29;39.60;;;16.38;;
23338;SDS011;11841;49.368;20.962;2023-12-14T00:28:14;60.58;;;23.40;;
23338;SDS011;11841;49.368;20.962;2023-12-14T00:31:00;63.88;;;24.35;;
23338;SDS011;11841;49.368;20.962;2023-12-14T00:33:45;76.57;;;28.42;;
23338;SDS011;11841;49.368;20.962;2023-12-14T00:36:31;85.75;;;27.30;;
23338;SDS011;11841;49.368;20.962;2023-12-14T00:39:16;72.78;;;27.05;;
23338;SDS011;11841;49.368;20.962;2023-12-14T00:42:01;76.03;;;27.20;;
23338;SDS011;11841;49.368;20.962;2023-12-14T00:44:47;84.72;;;32.67;;
23338;SDS011;11841;49.368;20.962;2023-12-14T00:47:32;80.75;;;30.70;;
23338;SDS011;11841;49.368;20.962;2023-12-14T00:50:18;50.80;;;21.25;;
23338;SDS011;11841;49.368;20.962;2023-12-14T00:53:03;19.17;;;11.90;;
23338;SDS011;11841;49.368;20.962;2023-12-14T00:55:48;24.10;;;9.68;;
23338;SDS011;11841;49.368;20.962;2023-12-14T00:58:34;21.08;;;10.75;;
23338;SDS011;11841;49.368;20.962;2023-12-14T01:01:19;68.75;;;25.25;;
23338;SDS011;11841;49.368;20.962;2023-12-14T01:04:05;79.60;;;31.42;;
23338;SDS011;11841;49.368;20.962;2023-12-14T01:06:50;95.20;;;34.65;;
23338;SDS011;11841;49.368;20.962;2023-12-14T01:09:36;92.20;;;36.42;;
23338;SDS011;11841;49.368;20.962;2023-12-14T01:12:21;105.45;;;36.50;;
23338;SDS011;11841;49.368;20.962;2023-12-14T01:15:07;73.57;;;27.27;;
23338;SDS011;11841;49.368;20.962;2023-12-14T01:17:53;51.17;;;19.08;;
23338;SDS011;11841;49.368;20.962;2023-12-14T01:20:38;26.88;;;13.43;;
23338;SDS011;11841;49.368;20.962;2023-12-14T01:23:23;21.05;;;9.48;;
23338;SDS011;11841;49.368;20.962;2023-12-14T01:26:09;20.10;;;9.85;;
23338;SDS011;11841;49.368;20.962;2023-12-14T01:28:54;28.50;;;11.10;;
23338;SDS011;11841;49.368;20.962;2023-12-14T01:31:40;22.00;;;9.77;;
23338;SDS011;11841;49.368;20.962;2023-12-14T01:34:25;16.80;;;9.70;;
23338;SDS011;11841;49.368;20.962;2023-12-14T01:37:11;21.45;;;10.48;;
23338;SDS011;11841;49.368;20.962;2023-12-14T01:39:57;12.75;;;7.63;;
23338;SDS011;11841;49.368;20.962;2023-12-14T01:42:42;15.07;;;8.52;;
23338;SDS011;11841;49.368;20.962;2023-12-14T01:45:28;19.30;;;9.80;;
23338;SDS011;11841;49.368;20.962;2023-12-14T01:48:13;15.05;;;8.20;;
23338;SDS011;11841;49.368;20.962;2023-12-14T01:50:58;21.70;;;9.65;;
23338;SDS011;11841;49.368;20.962;2023-12-14T01:53:44;22.48;;;10.10;;
23338;SDS011;11841;49.368;20.962;2023-12-14T01:56:30;15.95;;;7.60;;
23338;SDS011;11841;49.368;20.962;2023-12-14T01:59:15;12.30;;;6.43;;
23338;SDS011;11841;49.368;20.962;2023-12-14T02:02:01;18.00;;;9.45;;
23338;SDS011;11841;49.368;20.962;2023-12-14T02:04:47;17.10;;;8.23;;
23338;SDS011;11841;49.368;20.962;2023-12-14T02:07:33;18.60;;;9.15;;
23338;SDS011;11841;49.368;20.962;2023-12-14T02:10:18;16.30;;;7.60;;
23338;SDS011;11841;49.368;20.962;2023-12-14T02:13:04;13.00;;;6.30;;
23338;SDS011;11841;49.368;20.962;2023-12-14T02:15:49;24.60;;;10.55;;
23338;SDS011;11841;49.368;20.962;2023-12-14T02:18:34;24.60;;;11.65;;
23338;SDS011;11841;49.368;20.962;2023-12-14T02:21:20;11.45;;;7.25;;
23338;SDS011;11841;49.368;20.962;2023-12-14T02:24:05;22.45;;;10.13;;
23338;SDS011;11841;49.368;20.962;2023-12-14T02:26:51;18.13;;;9.50;;
23338;SDS011;11841;49.368;20.962;2023-12-14T02:29:47;20.85;;;9.02;;
23338;SDS011;11841;49.368;20.962;2023-12-14T02:32:32;19.88;;;9.50;;
23338;SDS011;11841;49.368;20.962;2023-12-14T02:35:18;20.85;;;11.05;;
23338;SDS011;11841;49.368;20.962;2023-12-14T02:38:03;21.13;;;9.70;;
23338;SDS011;11841;49.368;20.962;2023-12-14T02:40:49;18.70;;;8.27;;
23338;SDS011;11841;49.368;20.962;2023-12-14T02:43:35;13.75;;;6.85;;
23338;SDS011;11841;49.368;20.962;2023-12-14T02:46:23;8.52;;;6.13;;
23338;SDS011;11841;49.368;20.962;2023-12-14T02:49:08;12.07;;;6.82;;
23338;SDS011;11841;49.368;20.962;2023-12-14T02:51:53;17.27;;;6.57;;
23338;SDS011;11841;49.368;20.962;2023-12-14T02:54:39;27.95;;;11.77;;
23338;SDS011;11841;49.368;20.962;2023-12-14T02:57:25;30.67;;;13.45;;
23338;SDS011;11841;49.368;20.962;2023-12-14T03:00:10;17.17;;;9.18;;
23338;SDS011;11841;49.368;20.962;2023-12-14T03:02:56;17.90;;;8.40;;
23338;SDS011;11841;49.368;20.962;2023-12-14T03:05:42;10.93;;;6.95;;
23338;SDS011;11841;49.368;20.962;2023-12-14T03:08:27;11.30;;;6.50;;
23338;SDS011;11841;49.368;20.962;2023-12-14T03:11:20;12.45;;;6.88;;
23338;SDS011;11841;49.368;20.962;2023-12-14T03:14:07;13.18;;;6.72;;
23338;SDS011;11841;49.368;20.962;2023-12-14T03:16:53;13.55;;;7.65;;
23338;SDS011;11841;49.368;20.962;2023-12-14T03:19:39;15.63;;;7.95;;
23338;SDS011;11841;49.368;20.962;2023-12-14T03:22:26;10.82;;;6.22;;
23338;SDS011;11841;49.368;20.962;2023-12-14T03:25:11;12.18;;;6.18;;
23338;SDS011;11841;49.368;20.962;2023-12-14T03:27:56;12.68;;;5.93;;
23338;SDS011;11841;49.368;20.962;2023-12-14T03:30:42;11.60;;;6.65;;
23338;SDS011;11841;49.368;20.962;2023-12-14T03:33:27;9.35;;;5.88;;
23338;SDS011;11841;49.368;20.962;2023-12-14T03:36:12;9.73;;;6.07;;
23338;SDS011;11841;49.368;20.962;2023-12-14T03:38:58;13.27;;;6.05;;
23338;SDS011;11841;49.368;20.962;2023-12-14T03:41:44;8.68;;;4.93;;
23338;SDS011;11841;49.368;20.962;2023-12-14T03:44:29;12.30;;;6.25;;
23338;SDS011;11841;49.368;20.962;2023-12-14T03:47:15;8.88;;;4.95;;
23338;SDS011;11841;49.368;20.962;2023-12-14T03:50:00;9.80;;;5.95;;
23338;SDS011;11841;49.368;20.962;2023-12-14T03:52:46;18.85;;;9.50;;
23338;SDS011;11841;49.368;20.962;2023-12-14T03:55:31;20.60;;;9.80;;
23338;SDS011;11841;49.368;20.962;2023-12-14T03:58:17;14.70;;;9.50;;
23338;SDS011;11841;49.368;20.962;2023-12-14T04:01:02;24.08;;;10.05;;
23338;SDS011;11841;49.368;20.962;2023-12-14T04:03:48;20.38;;;8.98;;
23338;SDS011;11841;49.368;20.962;2023-12-14T04:06:33;16.42;;;8.57;;
23338;SDS011;11841;49.368;20.962;2023-12-14T04:09:19;15.00;;;7.90;;
23338;SDS011;11841;49.368;20.962;2023-12-14T04:12:04;17.30;;;8.68;;
23338;SDS011;11841;49.368;20.962;2023-12-14T04:14:50;18.08;;;9.60;;
23338;SDS011;11841;49.368;20.962;2023-12-14T04:17:36;15.13;;;7.70;;
23338;SDS011;11841;49.368;20.962;2023-12-14T04:20:21;20.40;;;9.88;;
23338;SDS011;11841;49.368;20.962;2023-12-14T04:23:07;16.23;;;9.52;;
23338;SDS011;11841;49.368;20.962;2023-12-14T04:25:52;23.08;;;10.68;;
23338;SDS011;11841;49.368;20.962;2023-12-14T04:28:37;22.42;;;11.55;;
23338;SDS011;11841;49.368;20.962;2023-12-14T04:31:23;16.33;;;8.57;;
23338;SDS011;11841;49.368;20.962;2023-12-14T04:34:08;18.38;;;7.93;;
23338;SDS011;11841;49.368;20.962;2023-12-14T04:36:57;15.27;;;8.52;;
23338;SDS011;11841;49.368;20.962;2023-12-14T04:39:42;15.38;;;7.32;;
23338;SDS011;11841;49.368;20.962;2023-12-14T04:42:28;17.52;;;8.80;;
23338;SDS011;11841;49.368;20.962;2023-12-14T04:45:13;21.60;;;8.38;;
23338;SDS011;11841;49.368;20.962;2023-12-14T04:47:58;15.70;;;8.10;;
23338;SDS011;11841;49.368;20.962;2023-12-14T04:50:44;13.57;;;7.68;;
23338;SDS011;11841;49.368;20.962;2023-12-14T04:53:29;17.33;;;8.13;;
23338;SDS011;11841;49.368;20.962;2023-12-14T04:56:15;15.10;;;7.75;;
23338;SDS011;11841;49.368;20.962;2023-12-14T04:59:00;16.25;;;8.45;;
23338;SDS011;11841;49.368;20.962;2023-12-14T05:01:46;11.50;;;6.70;;
23338;SDS011;11841;49.368;20.962;2023-12-14T05:04:31;11.95;;;6.47;;
23338;SDS011;11841;49.368;20.962;2023-12-14T05:07:16;11.30;;;6.53;;
23338;SDS011;11841;49.368;20.962;2023-12-14T05:10:02;14.00;;;6.82;;
23338;SDS011;11841;49.368;20.962;2023-12-14T05:12:47;11.85;;;6.72;;
23338;SDS011;11841;49.368;20.962;2023-12-14T05:15:33;10.82;;;5.00;;
23338;SDS011;11841;49.368;20.962;2023-12-14T05:18:18;9.95;;;5.90;;
23338;SDS011;11841;49.368;20.962;2023-12-14T05:21:04;11.48;;;6.30;;
23338;SDS011;11841;49.368;20.962;2023-12-14T05:23:49;8.50;;;5.55;;
23338;SDS011;11841;49.368;20.962;2023-12-14T05:26:35;8.30;;;5.43;;
23338;SDS011;11841;49.368;20.962;2023-12-14T05:29:21;7.95;;;5.63;;
23338;SDS011;11841;49.368;20.962;2023-12-14T05:32:06;8.55;;;5.32;;
23338;SDS011;11841;49.368;20.962;2023-12-14T05:34:51;8.15;;;4.55;;
23338;SDS011;11841;49.368;20.962;2023-12-14T05:37:40;9.05;;;5.15;;
23338;SDS011;11841;49.368;20.962;2023-12-14T05:40:26;7.22;;;5.30;;
23338;SDS011;11841;49.368;20.962;2023-12-14T05:43:11;6.68;;;4.63;;
23338;SDS011;11841;49.368;20.962;2023-12-14T05:45:57;8.35;;;4.70;;
23338;SDS011;11841;49.368;20.962;2023-12-14T05:48:42;7.88;;;5.00;;
23338;SDS011;11841;49.368;20.962;2023-12-14T05:51:31;8.15;;;4.97;;
23338;SDS011;11841;49.368;20.962;2023-12-14T05:54:17;8.95;;;4.60;;
23338;SDS011;11841;49.368;20.962;2023-12-14T05:57:03;8.32;;;5.57;;
23338;SDS011;11841;49.368;20.962;2023-12-14T05:59:50;7.47;;;4.78;;
23338;SDS011;11841;49.368;20.962;2023-12-14T06:02:36;6.57;;;4.53;;
23338;SDS011;11841;49.368;20.962;2023-12-14T06:05:23;5.72;;;4.43;;
23338;SDS011;11841;49.368;20.962;2023-12-14T06:08:08;6.35;;;4.22;;
23338;SDS011;11841;49.368;20.962;2023-12-14T06:10:53;6.40;;;4.90;;
23338;SDS011;11841;49.368;20.962;2023-12-14T06:13:42;9.55;;;5.10;;
23338;SDS011;11841;49.368;20.962;2023-12-14T06:16:27;8.30;;;4.18;;
23338;SDS011;11841;49.368;20.962;2023-12-14T06:19:13;8.48;;;5.03;;
23338;SDS011;11841;49.368;20.962;2023-12-14T06:21:58;5.60;;;4.47;;
23338;SDS011;11841;49.368;20.962;2023-12-14T06:24:44;18.63;;;7.28;;
23338;SDS011;11841;49.368;20.962;2023-12-14T06:27:30;8.32;;;5.43;;
23338;SDS011;11841;49.368;20.962;2023-12-14T06:30:15;12.95;;;5.55;;
23338;SDS011;11841;49.368;20.962;2023-12-14T06:33:01;9.77;;;5.57;;
23338;SDS011;11841;49.368;20.962;2023-12-14T06:35:47;12.77;;;5.90;;
23338;SDS011;11841;49.368;20.962;2023-12-14T06:38:32;13.57;;;6.70;;
23338;SDS011;11841;49.368;20.962;2023-12-14T06:41:18;14.68;;;7.20;;
23338;SDS011;11841;49.368;20.962;2023-12-14T06:44:05;11.55;;;5.80;;
23338;SDS011;11841;49.368;20.962;2023-12-14T06:46:51;13.13;;;6.38;;
23338;SDS011;11841;49.368;20.962;2023-12-14T06:49:36;12.40;;;6.68;;
23338;SDS011;11841;49.368;20.962;2023-12-14T06:52:21;10.90;;;6.28;;
23338;SDS011;11841;49.368;20.962;2023-12-14T06:55:07;11.57;;;6.43;;
23338;SDS011;11841;49.368;20.962;2023-12-14T06:57:54;9.93;;;6.22;;
23338;SDS011;11841;49.368;20.962;2023-12-14T07:00:39;11.95;;;6.55;;
23338;SDS011;11841;49.368;20.962;2023-12-14T07:03:24;9.85;;;6.88;;
23338;SDS011;11841;49.368;20.962;2023-12-14T07:06:13;8.32;;;5.65;;
23338;SDS011;11841;49.368;20.962;2023-12-14T07:11:43;9.25;;;5.75;;
23338;SDS011;11841;49.368;20.962;2023-12-14T07:14:29;8.85;;;6.10;;
23338;SDS011;11841;49.368;20.962;2023-12-14T07:17:14;8.07;;;5.10;;
23338;SDS011;11841;49.368;20.962;2023-12-14T07:20:00;8.75;;;5.90;;
23338;SDS011;11841;49.368;20.962;2023-12-14T07:22:45;8.82;;;6.00;;
23338;SDS011;11841;49.368;20.962;2023-12-14T07:25:30;9.07;;;5.55;;
23338;SDS011;11841;49.368;20.962;2023-12-14T07:28:16;7.70;;;5.22;;
23338;SDS011;11841;49.368;20.962;2023-12-14T07:31:01;8.98;;;5.80;;
23338;SDS011;11841;49.368;20.962;2023-12-14T07:33:46;11.75;;;6.55;;
23338;SDS011;11841;49.368;20.962;2023-12-14T07:36:31;10.65;;;6.75;;
23338;SDS011;11841;49.368;20.962;2023-12-14T07:39:17;10.90;;;6.82;;
23338;SDS011;11841;49.368;20.962;2023-12-14T07:42:02;8.93;;;5.90;;
23338;SDS011;11841;49.368;20.962;2023-12-14T07:44:47;11.90;;;6.05;;
23338;SDS011;11841;49.368;20.962;2023-12-14T07:47:33;11.15;;;6.82;;
23338;SDS011;11841;49.368;20.962;2023-12-14T07:50:18;12.50;;;6.72;;
23338;SDS011;11841;49.368;20.962;2023-12-14T07:55:53;11.93;;;5.07;;
23338;SDS011;11841;49.368;20.962;2023-12-14T07:58:38;15.45;;;6.53;;
23338;SDS011;11841;49.368;20.962;2023-12-14T08:01:23;13.73;;;6.25;;
23338;SDS011;11841;49.368;20.962;2023-12-14T08:04:09;7.93;;;5.78;;
23338;SDS011;11841;49.368;20.962;2023-12-14T08:06:56;11.27;;;6.18;;
23338;SDS011;11841;49.368;20.962;2023-12-14T08:09:42;10.45;;;6.22;;
23338;SDS011;11841;49.368;20.962;2023-12-14T08:12:27;10.10;;;5.80;;
23338;SDS011;11841;49.368;20.962;2023-12-14T08:15:13;11.35;;;6.05;;
23338;SDS011;11841;49.368;20.962;2023-12-14T08:17:58;9.30;;;6.20;;
23338;SDS011;11841;49.368;20.962;2023-12-14T08:20:43;11.30;;;5.63;;
23338;SDS011;11841;49.368;20.962;2023-12-14T08:23:29;11.38;;;5.80;;
23338;SDS011;11841;49.368;20.962;2023-12-14T08:26:15;12.10;;;5.75;;
23338;SDS011;11841;49.368;20.962;2023-12-14T08:29:00;11.93;;;6.32;;
23338;SDS011;11841;49.368;20.962;2023-12-14T08:31:45;10.30;;;5.95;;
23338;SDS011;11841;49.368;20.962;2023-12-14T08:34:31;8.60;;;5.25;;
23338;SDS011;11841;49.368;20.962;2023-12-14T08:37:16;11.50;;;6.30;;
23338;SDS011;11841;49.368;20.962;2023-12-14T08:40:03;16.52;;;7.25;;
23338;SDS011;11841;49.368;20.962;2023-12-14T08:42:50;12.77;;;7.40;;
23338;SDS011;11841;49.368;20.962;2023-12-14T08:45:35;11.63;;;6.88;;
23338;SDS011;11841;49.368;20.962;2023-12-14T08:48:21;9.98;;;6.40;;
23338;SDS011;11841;49.368;20.962;2023-12-14T08:51:06;11.07;;;7.05;;
23338;SDS011;11841;49.368;20.962;2023-12-14T08:53:51;12.77;;;7.10;;
23338;SDS011;11841;49.368;20.962;2023-12-14T08:56:37;12.35;;;7.05;;
23338;SDS011;11841;49.368;20.962;2023-12-14T08:59:22;10.75;;;5.85;;
23338;SDS011;11841;49.368;20.962;2023-12-14T09:02:08;12.75;;;7.43;;
23338;SDS011;11841;49.368;20.962;2023-12-14T09:04:53;12.00;;;7.65;;
23338;SDS011;11841;49.368;20.962;2023-12-14T09:07:39;13.73;;;6.80;;
23338;SDS011;11841;49.368;20.962;2023-12-14T09:10:24;9.90;;;5.80;;
23338;SDS011;11841;49.368;20.962;2023-12-14T09:13:10;9.23;;;6.15;;
23338;SDS011;11841;49.368;20.962;2023-12-14T09:15:56;9.70;;;6.07;;
23338;SDS011;11841;49.368;20.962;2023-12-14T09:18:41;9.10;;;5.85;;
23338;SDS011;11841;49.368;20.962;2023-12-14T09:21:27;13.20;;;8.10;;
23338;SDS011;11841;49.368;20.962;2023-12-14T09:24:28;11.00;;;6.57;;
23338;SDS011;11841;49.368;20.962;2023-12-14T09:27:14;10.82;;;6.40;;
23338;SDS011;11841;49.368;20.962;2023-12-14T09:30:00;17.63;;;8.18;;
23338;SDS011;11841;49.368;20.962;2023-12-14T09:32:45;10.20;;;7.03;;
23338;SDS011;11841;49.368;20.962;2023-12-14T09:35:31;13.80;;;7.30;;
23338;SDS011;11841;49.368;20.962;2023-12-14T09:38:16;9.85;;;6.55;;
23338;SDS011;11841;49.368;20.962;2023-12-14T09:41:04;11.15;;;7.15;;
23338;SDS011;11841;49.368;20.962;2023-12-14T09:43:50;11.75;;;7.15;;
23338;SDS011;11841;49.368;20.962;2023-12-14T09:46:37;10.52;;;6.28;;
23338;SDS011;11841;49.368;20.962;2023-12-14T09:49:23;10.27;;;6.63;;
23338;SDS011;11841;49.368;20.962;2023-12-14T09:52:13;11.43;;;7.05;;
23338;SDS011;11841;49.368;20.962;2023-12-14T09:54:59;10.25;;;6.55;;
23338;SDS011;11841;49.368;20.962;2023-12-14T09:57:45;9.00;;;7.35;;
23338;SDS011;11841;49.368;20.962;2023-12-14T10:00:37;16.17;;;7.80;;
23338;SDS011;11841;49.368;20.962;2023-12-14T10:03:25;11.95;;;6.85;;
23338;SDS011;11841;49.368;20.962;2023-12-14T10:06:12;9.90;;;6.15;;
23338;SDS011;11841;49.368;20.962;2023-12-14T10:08:58;9.43;;;5.45;;
23338;SDS011;11841;49.368;20.962;2023-12-14T10:11:44;8.35;;;5.65;;
23338;SDS011;11841;49.368;20.962;2023-12-14T10:14:29;11.30;;;7.03;;
23338;SDS011;11841;49.368;20.962;2023-12-14T10:17:19;10.52;;;6.32;;
23338;SDS011;11841;49.368;20.962;2023-12-14T10:20:06;9.45;;;6.05;;
23338;SDS011;11841;49.368;20.962;2023-12-14T10:22:54;10.85;;;7.00;;
23338;SDS011;11841;49.368;20.962;2023-12-14T10:25:42;8.57;;;4.72;;
23338;SDS011;11841;49.368;20.962;2023-12-14T10:28:27;11.60;;;7.07;;
23338;SDS011;11841;49.368;20.962;2023-12-14T10:31:12;20.55;;;9.25;;
23338;SDS011;11841;49.368;20.962;2023-12-14T10:33:58;14.07;;;8.63;;
23338;SDS011;11841;49.368;20.962;2023-12-14T10:36:43;17.45;;;8.40;;
23338;SDS011;11841;49.368;20.962;2023-12-14T10:39:31;14.82;;;7.63;;
23338;SDS011;11841;49.368;20.962;2023-12-14T10:42:19;7.37;;;4.80;;
23338;SDS011;11841;49.368;20.962;2023-12-14T10:45:06;8.13;;;5.88;;
23338;SDS011;11841;49.368;20.962;2023-12-14T10:48:03;11.80;;;5.88;;
23338;SDS011;11841;49.368;20.962;2023-12-14T10:50:50;9.18;;;5.95;;
23338;SDS011;11841;49.368;20.962;2023-12-14T10:53:36;11.20;;;7.40;;
23338;SDS011;11841;49.368;20.962;2023-12-14T10:56:22;13.60;;;8.80;;
23338;SDS011;11841;49.368;20.962;2023-12-14T10:59:07;29.60;;;13.52;;
23338;SDS011;11841;49.368;20.962;2023-12-14T11:01:55;21.00;;;12.27;;
23338;SDS011;11841;49.368;20.962;2023-12-14T11:05:00;13.00;;;7.95;;
23338;SDS011;11841;49.368;20.962;2023-12-14T11:07:52;15.98;;;9.90;;
23338;SDS011;11841;49.368;20.962;2023-12-14T11:10:52;12.98;;;7.82;;
23338;SDS011;11841;49.368;20.962;2023-12-14T11:13:41;11.23;;;6.40;;
23338;SDS011;11841;49.368;20.962;2023-12-14T11:16:27;10.75;;;6.35;;
23338;SDS011;11841;49.368;20.962;2023-12-14T11:24:52;9.73;;;5.95;;
23338;SDS011;11841;49.368;20.962;2023-12-14T11:27:42;11.90;;;5.78;;
23338;SDS011;11841;49.368;20.962;2023-12-14T11:30:28;7.60;;;4.55;;
23338;SDS011;11841;49.368;20.962;2023-12-14T11:33:28;8.82;;;5.65;;
23338;SDS011;11841;49.368;20.962;2023-12-14T11:36:14;9.50;;;5.50;;
23338;SDS011;11841;49.368;20.962;2023-12-14T11:39:00;6.00;;;4.50;;
23338;SDS011;11841;49.368;20.962;2023-12-14T11:42:02;8.68;;;5.57;;
23338;SDS011;11841;49.368;20.962;2023-12-14T11:44:49;9.57;;;5.10;;
23338;SDS011;11841;49.368;20.962;2023-12-14T11:47:34;11.30;;;7.20;;
23338;SDS011;11841;49.368;20.962;2023-12-14T11:50:21;8.43;;;4.85;;
23338;SDS011;11841;49.368;20.962;2023-12-14T11:53:06;8.82;;;5.90;;
23338;SDS011;11841;49.368;20.962;2023-12-14T11:55:53;11.25;;;6.97;;
23338;SDS011;11841;49.368;20.962;2023-12-14T11:58:40;14.38;;;7.70;;
23338;SDS011;11841;49.368;20.962;2023-12-14T12:01:26;11.77;;;7.50;;
23338;SDS011;11841;49.368;20.962;2023-12-14T12:04:13;14.10;;;6.68;;
23338;SDS011;11841;49.368;20.962;2023-12-14T12:07:07;12.75;;;6.10;;
23338;SDS011;11841;49.368;20.962;2023-12-14T12:09:54;10.70;;;6.93;;
23338;SDS011;11841;49.368;20.962;2023-12-14T12:12:39;9.20;;;6.07;;
23338;SDS011;11841;49.368;20.962;2023-12-14T12:15:27;21.90;;;8.93;;
23338;SDS011;11841;49.368;20.962;2023-12-14T12:18:13;13.25;;;8.07;;
23338;SDS011;11841;49.368;20.962;2023-12-14T12:21:00;10.38;;;6.47;;
23338;SDS011;11841;49.368;20.962;2023-12-14T12:26:35;8.50;;;4.75;;
23338;SDS011;11841;49.368;20.962;2023-12-14T12:29:21;9.38;;;5.13;;
23338;SDS011;11841;49.368;20.962;2023-12-14T12:32:06;8.55;;;5.03;;
23338;SDS011;11841;49.368;20.962;2023-12-14T12:34:52;7.45;;;4.60;;
23338;SDS011;11841;49.368;20.962;2023-12-14T12:37:37;11.55;;;5.97;;
23338;SDS011;11841;49.368;20.962;2023-12-14T12:40:23;10.90;;;6.03;;
23338;SDS011;11841;49.368;20.962;2023-12-14T12:43:15;10.13;;;5.78;;
23338;SDS011;11841;49.368;20.962;2023-12-14T12:46:01;10.70;;;6.47;;
23338;SDS011;11841;49.368;20.962;2023-12-14T12:48:47;13.20;;;6.82;;
23338;SDS011;11841;49.368;20.962;2023-12-14T12:51:32;11.60;;;7.15;;
23338;SDS011;11841;49.368;20.962;2023-12-14T12:54:18;12.57;;;7.25;;
23338;SDS011;11841;49.368;20.962;2023-12-14T12:57:03;14.77;;;7.63;;
23338;SDS011;11841;49.368;20.962;2023-12-14T12:59:49;11.73;;;6.97;;
23338;SDS011;11841;49.368;20.962;2023-12-14T13:02:35;15.27;;;7.57;;
23338;SDS011;11841;49.368;20.962;2023-12-14T13:05:20;16.25;;;8.25;;
23338;SDS011;11841;49.368;20.962;2023-12-14T13:08:07;23.10;;;9.25;;
23338;SDS011;11841;49.368;20.962;2023-12-14T13:10:53;21.15;;;11.18;;
23338;SDS011;11841;49.368;20.962;2023-12-14T13:13:40;18.75;;;11.55;;
23338;SDS011;11841;49.368;20.962;2023-12-14T13:16:25;18.20;;;9.60;;
23338;SDS011;11841;49.368;20.962;2023-12-14T13:19:14;28.95;;;14.80;;
23338;SDS011;11841;49.368;20.962;2023-12-14T13:22:00;34.97;;;15.00;;
23338;SDS011;11841;49.368;20.962;2023-12-14T13:24:50;28.98;;;14.80;;
23338;SDS011;11841;49.368;20.962;2023-12-14T13:27:35;16.42;;;10.05;;
23338;SDS011;11841;49.368;20.962;2023-12-14T13:30:22;19.27;;;9.73;;
23338;SDS011;11841;49.368;20.962;2023-12-14T13:33:08;20.15;;;10.20;;
23338;SDS011;11841;49.368;20.962;2023-12-14T13:35:56;15.38;;;8.70;;
23338;SDS011;11841;49.368;20.962;2023-12-14T13:38:42;18.27;;;11.07;;
23338;SDS011;11841;49.368;20.962;2023-12-14T13:41:27;19.52;;;10.95;;
23338;SDS011;11841;49.368;20.962;2023-12-14T13:44:13;17.15;;;9.32;;
23338;SDS011;11841;49.368;20.962;2023-12-14T13:46:58;8.68;;;5.78;;
23338;SDS011;11841;49.368;20.962;2023-12-14T13:49:43;11.52;;;6.50;;
23338;SDS011;11841;49.368;20.962;2023-12-14T13:52:29;10.98;;;6.85;;
23338;SDS011;11841;49.368;20.962;2023-12-14T13:55:16;15.15;;;7.80;;
23338;SDS011;11841;49.368;20.962;2023-12-14T13:58:01;15.45;;;8.35;;
23338;SDS011;11841;49.368;20.962;2023-12-14T14:00:47;14.38;;;7.80;;
23338;SDS011;11841;49.368;20.962;2023-12-14T14:03:33;17.30;;;8.50;;
23338;SDS011;11841;49.368;20.962;2023-12-14T14:06:20;16.95;;;8.88;;
23338;SDS011;11841;49.368;20.962;2023-12-14T14:09:08;11.57;;;6.68;;
23338;SDS011;11841;49.368;20.962;2023-12-14T14:11:53;14.13;;;8.00;;
23338;SDS011;11841;49.368;20.962;2023-12-14T14:14:42;12.25;;;7.13;;
23338;SDS011;11841;49.368;20.962;2023-12-14T14:17:27;14.15;;;8.25;;
23338;SDS011;11841;49.368;20.962;2023-12-14T14:20:13;21.10;;;9.23;;
23338;SDS011;11841;49.368;20.962;2023-12-14T14:22:59;122.55;;;18.90;;
23338;SDS011;11841;49.368;20.962;2023-12-14T14:25:45;44.63;;;20.17;;
23338;SDS011;11841;49.368;20.962;2023-12-14T14:28:30;36.88;;;17.17;;
23338;SDS011;11841;49.368;20.962;2023-12-14T14:31:15;42.30;;;19.58;;
23338;SDS011;11841;49.368;20.962;2023-12-14T14:34:00;38.38;;;18.65;;
23338;SDS011;11841;49.368;20.962;2023-12-14T14:36:46;37.33;;;18.08;;
23338;SDS011;11841;49.368;20.962;2023-12-14T14:39:31;24.77;;;15.18;;
23338;SDS011;11841;49.368;20.962;2023-12-14T14:42:18;37.70;;;19.88;;
23338;SDS011;11841;49.368;20.962;2023-12-14T14:45:03;42.42;;;21.70;;
23338;SDS011;11841;49.368;20.962;2023-12-14T14:47:53;55.90;;;23.92;;
23338;SDS011;11841;49.368;20.962;2023-12-14T14:50:39;44.08;;;21.13;;
23338;SDS011;11841;49.368;20.962;2023-12-14T14:53:24;33.63;;;16.88;;
23338;SDS011;11841;49.368;20.962;2023-12-14T14:56:12;20.05;;;11.80;;
23338;SDS011;11841;49.368;20.962;2023-12-14T14:58:58;36.08;;;17.65;;
23338;SDS011;11841;49.368;20.962;2023-12-14T15:01:43;66.47;;;34.95;;
23338;SDS011;11841;49.368;20.962;2023-12-14T15:04:30;52.30;;;28.67;;
23338;SDS011;11841;49.368;20.962;2023-12-14T15:07:17;38.20;;;19.10;;
23338;SDS011;11841;49.368;20.962;2023-12-14T15:10:02;32.70;;;17.33;;
23338;SDS011;11841;49.368;20.962;2023-12-14T15:12:47;21.25;;;10.85;;
23338;SDS011;11841;49.368;20.962;2023-12-14T15:15:33;20.00;;;10.55;;
23338;SDS011;11841;49.368;20.962;2023-12-14T15:18:18;39.15;;;19.10;;
23338;SDS011;11841;49.368;20.962;2023-12-14T15:21:04;32.53;;;17.75;;
23338;SDS011;11841;49.368;20.962;2023-12-14T15:26:40;29.13;;;13.10;;
23338;SDS011;11841;49.368;20.962;2023-12-14T15:29:26;23.25;;;12.75;;
23338;SDS011;11841;49.368;20.962;2023-12-14T15:32:11;57.17;;;27.05;;
23338;SDS011;11841;49.368;20.962;2023-12-14T15:34:57;48.10;;;23.40;;
23338;SDS011;11841;49.368;20.962;2023-12-14T15:37:42;48.92;;;22.10;;
23338;SDS011;11841;49.368;20.962;2023-12-14T15:40:27;52.42;;;22.48;;
23338;SDS011;11841;49.368;20.962;2023-12-14T15:43:14;35.30;;;18.35;;
23338;SDS011;11841;49.368;20.962;2023-12-14T15:45:59;30.05;;;16.02;;
23338;SDS011;11841;49.368;20.962;2023-12-14T15:48:44;34.85;;;19.50;;
23338;SDS011;11841;49.368;20.962;2023-12-14T15:51:31;24.58;;;11.60;;
23338;SDS011;11841;49.368;20.962;2023-12-14T15:54:17;25.60;;;15.13;;
23338;SDS011;11841;49.368;20.962;2023-12-14T15:57:02;37.15;;;18.88;;
23338;SDS011;11841;49.368;20.962;2023-12-14T15:59:47;23.65;;;14.02;;
23338;SDS011;11841;49.368;20.962;2023-12-14T16:02:32;35.70;;;17.75;;
23338;SDS011;11841;49.368;20.962;2023-12-14T16:05:18;27.00;;;13.98;;
23338;SDS011;11841;49.368;20.962;2023-12-14T16:08:04;20.63;;;10.15;;
23338;SDS011;11841;49.368;20.962;2023-12-14T16:10:50;46.90;;;22.75;;
23338;SDS011;11841;49.368;20.962;2023-12-14T16:13:38;35.30;;;19.20;;
23338;SDS011;11841;49.368;20.962;2023-12-14T16:16:24;33.97;;;16.85;;
23338;SDS011;11841;49.368;20.962;2023-12-14T16:19:09;40.80;;;22.35;;
23338;SDS011;11841;49.368;20.962;2023-12-14T16:21:55;44.22;;;22.17;;
23338;SDS011;11841;49.368;20.962;2023-12-14T16:24:40;37.10;;;18.73;;
23338;SDS011;11841;49.368;20.962;2023-12-14T16:27:25;32.40;;;17.50;;